createdAt,value
2023-03-27T00:01:13.133Z,1.24
2023-03-27T00:03:40.734Z,1.41
2023-03-27T00:06:16.499Z,1.24
2023-03-27T00:08:47.907Z,1.53
2023-03-27T00:11:15.889Z,1.19
2023-03-27T00:13:49.427Z,1.28
2023-03-27T00:16:22.252Z,1.45
2023-03-27T00:18:49.354Z,1.45
2023-03-27T00:21:16.267Z,1.40
2023-03-27T00:23:43.064Z,1.29
2023-03-27T00:26:12.123Z,1.16
2023-03-27T00:28:39.424Z,1.54
2023-03-27T00:31:11.682Z,1.28
2023-03-27T00:33:39.064Z,1.41
2023-03-27T00:36:06.613Z,1.24
2023-03-27T00:38:34.057Z,1.63
2023-03-27T00:41:01.224Z,1.41
2023-03-27T00:43:34.213Z,1.61
2023-03-27T00:46:16.109Z,1.75
2023-03-27T00:48:47.102Z,1.56
2023-03-27T00:51:15.931Z,1.54
2023-03-27T00:53:44.127Z,1.77
2023-03-27T00:56:11.263Z,1.68
2023-03-27T00:59:00.922Z,1.89
2023-03-27T01:01:29.178Z,1.83
2023-03-27T01:04:04.598Z,1.78
2023-03-27T01:06:32.616Z,1.77
2023-03-27T01:08:59.609Z,1.66
2023-03-27T01:11:29.403Z,2.02
2023-03-27T01:14:12.281Z,1.99
2023-03-27T01:16:52.327Z,1.58
2023-03-27T01:19:31.055Z,1.99
2023-03-27T01:22:24.085Z,1.98
2023-03-27T01:25:19.655Z,1.82
2023-03-27T01:28:12.336Z,1.73
2023-03-27T01:30:40.701Z,1.99
2023-03-27T01:33:38.802Z,1.99
2023-03-27T01:36:30.469Z,1.99
2023-03-27T01:39:00.142Z,1.98
2023-03-27T01:41:34.687Z,1.79
2023-03-27T01:44:17.433Z,1.61
2023-03-27T01:46:52.533Z,1.40
2023-03-27T01:49:34.155Z,1.63
2023-03-27T01:52:06.290Z,1.65
2023-03-27T01:54:37.447Z,1.65
2023-03-27T01:57:22.360Z,1.89
2023-03-27T02:00:17.302Z,1.44
2023-03-27T02:02:56.992Z,1.57
2023-03-27T02:05:31.275Z,1.90
2023-03-27T02:08:04.994Z,1.37
2023-03-27T02:10:37.891Z,1.83
2023-03-27T02:13:09.346Z,1.51
2023-03-27T02:15:41.094Z,1.22
2023-03-27T02:18:12.326Z,1.32
2023-03-27T02:20:41.221Z,1.65
2023-03-27T02:23:08.524Z,0.95
2023-03-27T02:25:40.875Z,1.35
2023-03-27T02:28:38.750Z,1.39
2023-03-27T02:31:32.334Z,1.17
2023-03-27T02:34:25.326Z,1.25
2023-03-27T02:37:21.467Z,1.24
2023-03-27T02:40:39.994Z,1.04
2023-03-27T02:43:12.563Z,0.97
2023-03-27T02:46:02.473Z,0.89
2023-03-27T02:48:42.335Z,1.13
2023-03-27T02:51:08.985Z,1.19
2023-03-27T02:53:43.310Z,1.01
2023-03-27T02:56:12.067Z,0.96
2023-03-27T02:58:50.112Z,1.29
2023-03-27T03:01:20.020Z,0.95
2023-03-27T03:03:55.277Z,0.71
2023-03-27T03:06:30.116Z,1.08
2023-03-27T03:09:02.204Z,0.96
2023-03-27T03:11:30.275Z,1.14
2023-03-27T03:13:57.866Z,1.04
2023-03-27T03:16:24.727Z,1.13
2023-03-27T03:18:52.062Z,1.02
2023-03-27T03:21:18.875Z,1.01
2023-03-27T03:23:58.099Z,1.22
2023-03-27T03:26:27.181Z,1.05
2023-03-27T03:29:01.373Z,1.23
2023-03-27T03:31:44.289Z,0.94
2023-03-27T03:34:16.660Z,1.28
2023-03-27T03:36:45.004Z,0.93
2023-03-27T03:39:12.781Z,0.86
2023-03-27T03:41:39.699Z,0.90
2023-03-27T03:44:06.489Z,0.97
2023-03-27T03:46:33.505Z,1.09
2023-03-27T03:49:00.858Z,1.09
2023-03-27T03:51:28.512Z,0.57
2023-03-27T03:53:55.205Z,0.91
2023-03-27T03:56:21.909Z,0.78
2023-03-27T03:58:48.602Z,0.95
2023-03-27T04:01:15.397Z,0.93
2023-03-27T04:03:42.423Z,1.17
2023-03-27T04:06:10.985Z,1.18
2023-03-27T04:08:38.002Z,1.30
2023-03-27T04:11:05.679Z,1.37
2023-03-27T04:13:33.123Z,1.37
2023-03-27T04:16:01.946Z,1.63
2023-03-27T04:18:30.765Z,1.45
2023-03-27T04:20:58.665Z,1.20
2023-03-27T04:23:30.532Z,1.51
2023-03-27T04:26:01.208Z,0.94
2023-03-27T04:28:30.460Z,1.22
2023-03-27T04:30:58.658Z,1.20
2023-03-27T04:33:25.864Z,1.16
2023-03-27T04:36:06.913Z,1.13
2023-03-27T04:38:36.998Z,0.99
2023-03-27T04:41:04.714Z,0.96
2023-03-27T04:43:31.743Z,0.94
2023-03-27T04:45:58.478Z,0.93
2023-03-27T04:48:26.871Z,0.86
2023-03-27T04:50:53.657Z,0.78
2023-03-27T04:53:20.665Z,0.72
2023-03-27T04:55:51.329Z,1.07
2023-03-27T04:58:19.324Z,1.02
2023-03-27T05:00:50.856Z,0.71
2023-03-27T05:03:19.199Z,0.73
2023-03-27T05:05:50.259Z,0.93
2023-03-27T05:08:18.182Z,0.88
2023-03-27T05:10:46.582Z,0.68
2023-03-27T05:13:13.618Z,0.94
2023-03-27T05:15:40.487Z,0.73
2023-03-27T05:18:07.651Z,0.82
2023-03-27T05:20:35.428Z,0.81
2023-03-27T05:23:02.289Z,0.74
2023-03-27T05:25:31.022Z,0.88
2023-03-27T05:27:58.175Z,0.36
2023-03-27T05:30:26.862Z,0.54
2023-03-27T05:32:54.360Z,0.44
2023-03-27T05:35:24.005Z,0.78
2023-03-27T05:37:53.002Z,0.93
2023-03-27T05:40:28.382Z,0.79
2023-03-27T05:42:56.424Z,0.87
2023-03-27T05:45:23.490Z,0.95
2023-03-27T05:47:58.070Z,0.60
2023-03-27T05:50:28.509Z,0.90
2023-03-27T05:53:00.040Z,0.81
2023-03-27T05:55:28.031Z,0.67
2023-03-27T05:57:55.486Z,0.71
2023-03-27T06:00:26.331Z,0.51
2023-03-27T06:02:58.267Z,0.76
2023-03-27T06:05:27.870Z,0.71
2023-03-27T06:07:54.882Z,0.46
2023-03-27T06:10:22.088Z,0.33
2023-03-27T06:12:59.020Z,0.66
2023-03-27T06:15:26.469Z,0.79
2023-03-27T06:17:53.382Z,0.22
2023-03-27T06:20:21.891Z,0.29
2023-03-27T06:22:53.507Z,0.72
2023-03-27T06:25:20.477Z,0.54
2023-03-27T06:27:49.644Z,0.93
2023-03-27T06:30:21.688Z,1.02
2023-03-27T06:32:59.774Z,0.72
2023-03-27T06:35:29.412Z,0.93
2023-03-27T06:37:56.570Z,0.99
2023-03-27T06:40:25.054Z,0.64
2023-03-27T06:42:59.401Z,0.83
2023-03-27T06:45:30.144Z,1.03
2023-03-27T06:48:13.460Z,1.08
2023-03-27T06:50:47.865Z,1.30
2023-03-27T06:53:26.599Z,1.19
2023-03-27T06:55:54.706Z,1.20
2023-03-27T06:58:22.067Z,1.16
2023-03-27T07:00:49.779Z,1.88
2023-03-27T07:03:18.298Z,2.01
2023-03-27T07:05:45.876Z,2.69
2023-03-27T07:10:48.711Z,3.41
2023-03-27T07:13:20.486Z,3.62
2023-03-27T07:15:47.196Z,3.55
2023-03-27T07:18:15.357Z,3.42
2023-03-27T07:20:42.211Z,3.70
2023-03-27T07:23:10.202Z,4.36
2023-03-27T07:25:40.858Z,3.97
2023-03-27T07:28:11.110Z,4.66
2023-03-27T07:30:38.522Z,4.77
2023-03-27T07:33:07.451Z,5.22
2023-03-27T07:35:34.325Z,5.59
2023-03-27T07:38:03.341Z,5.15
2023-03-27T07:40:39.319Z,5.11
2023-03-27T07:43:07.395Z,5.71
2023-03-27T07:45:35.295Z,5.46
2023-03-27T07:48:08.678Z,5.63
2023-03-27T07:50:36.195Z,5.97
2023-03-27T07:53:02.983Z,5.81
2023-03-27T07:55:29.902Z,5.42
2023-03-27T07:58:01.459Z,5.83
2023-03-27T08:00:29.887Z,5.61
2023-03-27T08:03:11.733Z,5.75
2023-03-27T08:05:38.608Z,5.87
2023-03-27T08:08:05.501Z,6.10
2023-03-27T08:10:32.699Z,5.74
2023-03-27T08:12:59.520Z,5.72
2023-03-27T08:15:26.333Z,6.23
2023-03-27T08:17:55.324Z,6.15
2023-03-27T08:20:24.260Z,6.07
2023-03-27T08:22:52.905Z,6.17
2023-03-27T08:25:22.586Z,6.30
2023-03-27T08:27:49.890Z,6.33
2023-03-27T08:30:17.422Z,6.59
2023-03-27T08:32:44.845Z,6.36
2023-03-27T08:35:12.409Z,6.65
2023-03-27T08:37:39.816Z,7.31
2023-03-27T08:40:13.653Z,7.34
2023-03-27T08:42:44.140Z,6.98
2023-03-27T08:45:18.643Z,7.01
2023-03-27T08:47:58.275Z,6.59
2023-03-27T08:50:33.669Z,6.77
2023-03-27T08:53:02.850Z,6.74
2023-03-27T08:55:47.734Z,6.25
2023-03-27T08:58:23.301Z,7.32
2023-03-27T09:01:15.562Z,7.17
2023-03-27T09:03:43.046Z,7.37
2023-03-27T09:06:40.075Z,6.71
2023-03-27T09:09:39.289Z,7.14
2023-03-27T09:12:26.454Z,7.22
2023-03-27T09:14:58.690Z,7.14
2023-03-27T09:17:34.343Z,7.18
2023-03-27T09:20:24.175Z,7.39
2023-03-27T09:22:58.137Z,7.29
2023-03-27T09:25:41.250Z,6.63
2023-03-27T09:28:24.102Z,6.82
2023-03-27T09:30:51.198Z,6.48
2023-03-27T09:33:18.041Z,6.66
2023-03-27T09:35:44.972Z,6.81
2023-03-27T09:38:39.414Z,6.35
2023-03-27T09:41:15.604Z,6.55
2023-03-27T09:44:10.505Z,6.33
2023-03-27T09:46:43.118Z,6.57
2023-03-27T09:49:15.552Z,7.14
2023-03-27T09:51:46.856Z,6.68
2023-03-27T09:54:16.939Z,6.59
2023-03-27T09:56:47.938Z,6.15
2023-03-27T09:59:28.897Z,6.54
2023-03-27T10:01:59.190Z,6.82
2023-03-27T10:04:27.824Z,6.96
2023-03-27T10:07:08.287Z,6.93
2023-03-27T10:09:37.619Z,6.98
2023-03-27T10:12:07.645Z,7.43
2023-03-27T10:14:43.704Z,7.41
2023-03-27T10:17:26.369Z,7.28
2023-03-27T10:20:00.267Z,7.00
2023-03-27T10:22:38.029Z,6.98
2023-03-27T10:25:16.510Z,6.91
2023-03-27T10:27:43.932Z,7.45
2023-03-27T10:30:33.628Z,7.21
2023-03-27T10:33:00.554Z,7.36
2023-03-27T10:35:36.182Z,7.06
2023-03-27T10:38:10.867Z,7.21
2023-03-27T10:40:39.752Z,7.72
2023-03-27T10:43:12.890Z,7.25
2023-03-27T10:45:59.866Z,7.52
2023-03-27T10:48:38.773Z,7.86
2023-03-27T10:51:13.263Z,7.79
2023-03-27T10:53:51.139Z,8.23
2023-03-27T10:56:29.503Z,7.77
2023-03-27T10:59:11.473Z,7.92
2023-03-27T11:01:43.681Z,7.73
2023-03-27T11:04:32.211Z,8.29
2023-03-27T11:07:03.384Z,8.18
2023-03-27T11:09:36.542Z,8.01
2023-03-27T11:12:22.639Z,8.03
2023-03-27T11:15:09.935Z,7.99
2023-03-27T11:17:44.159Z,7.95
2023-03-27T11:20:23.320Z,8.58
2023-03-27T11:23:00.412Z,8.02
2023-03-27T11:25:29.956Z,8.01
2023-03-27T11:28:14.041Z,7.46
2023-03-27T11:30:46.661Z,8.55
2023-03-27T11:33:28.431Z,8.33
2023-03-27T11:36:11.801Z,8.22
2023-03-27T11:38:41.372Z,8.41
2023-03-27T11:41:14.656Z,8.35
2023-03-27T11:43:42.217Z,8.93
2023-03-27T11:46:40.045Z,9.39
2023-03-27T11:49:32.238Z,9.12
2023-03-27T11:52:12.008Z,9.72
2023-03-27T11:54:57.970Z,9.88
2023-03-27T11:57:27.149Z,9.17
2023-03-27T12:00:22.043Z,9.58
2023-03-27T12:03:10.659Z,9.34
2023-03-27T12:06:02.245Z,9.05
2023-03-27T12:08:55.652Z,9.07
2023-03-27T12:11:25.670Z,7.93
2023-03-27T12:14:00.947Z,8.38
2023-03-27T12:16:48.111Z,8.34
2023-03-27T12:19:29.576Z,9.15
2023-03-27T12:22:43.808Z,9.28
2023-03-27T12:25:40.170Z,9.87
2023-03-27T12:28:28.613Z,9.37
2023-03-27T12:31:04.240Z,9.03
2023-03-27T12:34:04.640Z,9.64
2023-03-27T12:36:37.697Z,9.24
2023-03-27T12:39:24.559Z,8.99
2023-03-27T12:41:51.957Z,9.99
2023-03-27T12:44:30.199Z,10.38
2023-03-27T12:47:09.064Z,10.68
2023-03-27T12:49:56.017Z,10.16
2023-03-27T12:52:25.446Z,10.16
2023-03-27T12:55:18.593Z,10.14
2023-03-27T12:57:47.181Z,9.99
2023-03-27T13:00:25.738Z,10.30
2023-03-27T13:03:30.070Z,10.36
2023-03-27T13:06:15.740Z,9.96
2023-03-27T13:09:08.354Z,9.54
2023-03-27T13:12:02.809Z,9.98
2023-03-27T13:14:55.900Z,9.62
2023-03-27T13:17:34.615Z,9.80
2023-03-27T13:20:16.607Z,10.05
2023-03-27T13:23:06.076Z,9.64
2023-03-27T13:25:42.677Z,10.01
2023-03-27T13:28:24.561Z,10.15
2023-03-27T13:30:54.799Z,10.03
2023-03-27T13:33:39.258Z,10.10
2023-03-27T13:36:14.655Z,10.18
2023-03-27T13:38:53.771Z,9.95
2023-03-27T13:41:45.314Z,10.26
2023-03-27T13:44:22.603Z,9.79
2023-03-27T13:46:56.342Z,10.33
2023-03-27T13:49:52.508Z,9.99
2023-03-27T13:53:06.698Z,9.96
2023-03-27T13:55:48.588Z,9.37
2023-03-27T13:58:21.055Z,9.16
2023-03-27T14:00:55.778Z,8.61
2023-03-27T14:03:32.001Z,8.91
2023-03-27T14:06:36.204Z,8.86
2023-03-27T14:09:18.051Z,8.67
2023-03-27T14:11:50.904Z,8.51
2023-03-27T14:14:42.160Z,8.47
2023-03-27T14:17:21.874Z,7.86
2023-03-27T14:20:11.281Z,8.28
2023-03-27T14:22:59.300Z,7.92
2023-03-27T14:25:34.955Z,7.82
2023-03-27T14:28:01.806Z,8.16
2023-03-27T14:30:33.603Z,8.46
2023-03-27T14:33:08.108Z,8.11
2023-03-27T14:35:40.018Z,7.93
2023-03-27T14:38:14.575Z,7.70
2023-03-27T14:40:53.201Z,8.16
2023-03-27T14:43:22.077Z,8.28
2023-03-27T14:45:54.503Z,8.11
2023-03-27T14:48:27.329Z,8.39
2023-03-27T14:50:58.122Z,7.96
2023-03-27T14:53:31.425Z,8.28
2023-03-27T14:56:00.435Z,8.39
2023-03-27T14:58:27.927Z,7.96
2023-03-27T15:00:58.386Z,8.26
2023-03-27T15:03:27.513Z,8.26
2023-03-27T15:06:02.063Z,7.58
2023-03-27T15:08:33.702Z,7.35
2023-03-27T15:11:00.968Z,7.57
2023-03-27T15:13:34.400Z,7.72
2023-03-27T15:16:03.110Z,7.85
2023-03-27T15:18:34.169Z,7.70
2023-03-27T15:21:06.461Z,7.47
2023-03-27T15:24:00.953Z,7.57
2023-03-27T15:26:31.760Z,7.57
2023-03-27T15:29:04.085Z,7.83
2023-03-27T15:31:33.116Z,7.55
2023-03-27T15:34:09.118Z,7.59
2023-03-27T15:36:38.099Z,7.53
2023-03-27T15:39:07.395Z,7.28
2023-03-27T15:41:35.138Z,7.60
2023-03-27T15:44:13.224Z,7.58
2023-03-27T15:46:54.117Z,7.56
2023-03-27T15:49:22.604Z,7.54
2023-03-27T15:51:49.366Z,7.75
2023-03-27T15:54:53.658Z,7.75
2023-03-27T15:57:20.427Z,7.54
2023-03-27T15:59:52.099Z,7.46
2023-03-27T16:02:21.759Z,7.44
2023-03-27T16:04:56.295Z,7.87
2023-03-27T16:07:47.385Z,7.77
2023-03-27T16:10:29.028Z,7.18
2023-03-27T16:12:58.492Z,7.79
2023-03-27T16:15:41.915Z,7.48
2023-03-27T16:18:19.260Z,7.59
2023-03-27T16:20:46.119Z,7.45
2023-03-27T16:23:12.837Z,7.41
2023-03-27T16:25:41.368Z,7.24
2023-03-27T16:28:09.657Z,7.27
2023-03-27T16:30:42.364Z,7.54
2023-03-27T16:33:15.839Z,7.27
2023-03-27T16:35:44.305Z,7.01
2023-03-27T16:38:11.944Z,7.28
2023-03-27T16:40:38.655Z,7.46
2023-03-27T16:43:05.436Z,7.48
2023-03-27T16:45:32.353Z,7.60
2023-03-27T16:47:59.253Z,7.38
2023-03-27T16:50:28.269Z,7.46
2023-03-27T16:52:55.190Z,7.34
2023-03-27T16:55:22.038Z,7.49
2023-03-27T16:57:48.932Z,7.58
2023-03-27T17:00:16.701Z,7.85
2023-03-27T17:02:44.628Z,7.46
2023-03-27T17:05:11.661Z,7.29
2023-03-27T17:07:38.745Z,7.02
2023-03-27T17:10:06.054Z,7.33
2023-03-27T17:12:32.759Z,6.84
2023-03-27T17:14:59.433Z,7.11
2023-03-27T17:17:27.682Z,7.08
2023-03-27T17:19:54.563Z,7.39
2023-03-27T17:22:21.620Z,7.16
2023-03-27T17:24:56.803Z,6.78
2023-03-27T17:27:26.657Z,7.15
2023-03-27T17:29:56.279Z,7.09
2023-03-27T17:32:28.231Z,7.76
2023-03-27T17:34:55.384Z,7.71
2023-03-27T17:37:23.446Z,7.09
2023-03-27T17:39:50.489Z,7.60
2023-03-27T17:42:17.560Z,7.50
2023-03-27T17:44:45.497Z,7.73
2023-03-27T17:47:12.922Z,7.40
2023-03-27T17:49:40.919Z,7.18
2023-03-27T17:52:12.037Z,7.26
2023-03-27T17:54:39.396Z,7.29
2023-03-27T17:57:06.606Z,6.87
2023-03-27T17:59:33.650Z,6.80
2023-03-27T18:02:00.580Z,6.38
2023-03-27T18:04:27.686Z,6.47
2023-03-27T18:06:54.428Z,6.52
2023-03-27T18:09:21.462Z,6.53
2023-03-27T18:11:48.216Z,6.58
2023-03-27T18:14:15.071Z,6.63
2023-03-27T18:16:41.882Z,6.38
2023-03-27T18:19:09.272Z,6.51
2023-03-27T18:21:36.226Z,5.97
2023-03-27T18:24:03.132Z,5.98
2023-03-27T18:26:29.992Z,5.94
2023-03-27T18:28:57.830Z,6.27
2023-03-27T18:31:24.808Z,5.80
2023-03-27T18:33:51.597Z,5.26
2023-03-27T18:42:55.758Z,5.86
2023-03-27T18:45:22.435Z,5.57
2023-03-27T18:47:49.224Z,5.43
2023-03-27T18:50:17.448Z,5.47
2023-03-27T18:52:44.397Z,5.30
2023-03-27T18:55:13.146Z,5.09
2023-03-27T18:57:40.313Z,5.32
2023-03-27T19:00:09.571Z,5.17
2023-03-27T19:02:39.324Z,5.37
2023-03-27T19:05:06.671Z,5.28
2023-03-27T19:07:33.498Z,5.00
2023-03-27T19:10:00.447Z,5.19
2023-03-27T19:12:27.271Z,5.25
2023-03-27T19:14:54.068Z,5.07
2023-03-27T19:17:21.172Z,5.44
2023-03-27T19:19:47.989Z,5.04
2023-03-27T19:22:14.970Z,5.28
2023-03-27T19:24:42.587Z,5.08
2023-03-27T19:27:23.093Z,4.97
2023-03-27T19:29:50.168Z,4.82
2023-03-27T19:32:17.031Z,4.92
2023-03-27T19:34:44.104Z,4.97
2023-03-27T19:37:11.271Z,4.91
2023-03-27T19:39:38.054Z,4.99
2023-03-27T19:42:05.062Z,4.59
2023-03-27T19:44:31.893Z,4.38
2023-03-27T19:46:58.926Z,4.62
2023-03-27T19:49:26.604Z,4.85
2023-03-27T19:51:53.361Z,4.68
2023-03-27T19:54:20.085Z,4.62
2023-03-27T19:56:46.959Z,4.67
2023-03-27T19:59:24.100Z,4.68
2023-03-27T20:01:56.949Z,4.66
2023-03-27T20:04:23.742Z,4.53
2023-03-27T20:06:50.437Z,4.39
2023-03-27T20:09:17.250Z,4.65
2023-03-27T20:11:44.063Z,4.36
2023-03-27T20:14:11.566Z,4.71
2023-03-27T20:16:41.594Z,4.68
2023-03-27T20:19:09.471Z,4.60
2023-03-27T20:21:40.459Z,4.64
2023-03-27T20:24:09.992Z,4.37
2023-03-27T20:26:41.612Z,4.18
2023-03-27T20:29:14.072Z,4.33
2023-03-27T20:31:41.245Z,4.28
2023-03-27T20:34:09.029Z,4.58
2023-03-27T20:36:36.210Z,4.29
2023-03-27T20:39:06.737Z,4.72
2023-03-27T20:41:34.682Z,4.51
2023-03-27T20:44:02.906Z,4.53
2023-03-27T20:46:30.696Z,4.03
2023-03-27T20:48:57.734Z,4.11
2023-03-27T20:51:25.060Z,4.04
2023-03-27T20:53:55.996Z,4.37
2023-03-27T20:56:24.043Z,4.46
2023-03-27T20:58:51.646Z,4.25
2023-03-27T21:01:27.401Z,4.50
2023-03-27T21:03:58.548Z,4.34
2023-03-27T21:06:25.952Z,4.10
2023-03-27T21:08:52.713Z,4.01
2023-03-27T21:11:19.406Z,3.87
2023-03-27T21:13:46.122Z,3.90
2023-03-27T21:16:12.835Z,4.06
2023-03-27T21:18:39.623Z,4.07
2023-03-27T21:21:06.488Z,3.86
2023-03-27T21:23:34.650Z,4.06
2023-03-27T21:26:01.753Z,3.83
2023-03-27T21:28:28.672Z,3.84
2023-03-27T21:30:55.422Z,3.68
2023-03-27T21:33:22.303Z,3.79
2023-03-27T21:35:49.627Z,3.56
2023-03-27T21:38:17.819Z,3.44
2023-03-27T21:40:46.941Z,4.04
2023-03-27T21:43:13.984Z,3.99
2023-03-27T21:45:40.852Z,3.83
2023-03-27T21:48:07.703Z,3.73
2023-03-27T21:50:34.472Z,3.77
2023-03-27T21:53:01.202Z,3.49
2023-03-27T21:55:27.940Z,3.79
2023-03-27T21:57:54.743Z,3.68
2023-03-27T22:00:21.484Z,3.65
2023-03-27T22:02:48.380Z,3.48
2023-03-27T22:05:15.178Z,3.55
2023-03-27T22:07:41.916Z,3.60
2023-03-27T22:10:09.152Z,3.70
2023-03-27T22:12:37.362Z,3.70
2023-03-27T22:15:07.068Z,3.74
2023-03-27T22:17:36.732Z,3.62
2023-03-27T22:20:07.854Z,3.57
2023-03-27T22:22:35.607Z,3.53
2023-03-27T22:25:02.687Z,3.48
2023-03-27T22:27:29.967Z,3.37
2023-03-27T22:29:56.822Z,3.51
2023-03-27T22:32:23.764Z,3.58
2023-03-27T22:34:50.624Z,3.41
2023-03-27T22:37:17.740Z,3.57
2023-03-27T22:39:44.502Z,3.27
2023-03-27T22:42:11.439Z,3.19
2023-03-27T22:44:38.372Z,3.46
2023-03-27T22:47:05.092Z,3.63
2023-03-27T22:49:31.833Z,3.48
2023-03-27T22:51:58.595Z,3.39
2023-03-27T22:54:25.528Z,3.30
2023-03-27T22:56:55.312Z,3.45
2023-03-27T22:59:22.272Z,3.52
2023-03-27T23:01:49.096Z,3.44
2023-03-27T23:04:15.925Z,3.64
2023-03-27T23:06:42.650Z,3.32
2023-03-27T23:09:09.982Z,3.40
2023-03-27T23:11:36.678Z,3.30
2023-03-27T23:14:03.429Z,3.70
2023-03-27T23:16:30.182Z,3.56
2023-03-27T23:18:56.923Z,3.62
2023-03-27T23:21:23.685Z,3.62
2023-03-27T23:23:50.367Z,3.77
2023-03-27T23:26:18.376Z,3.69
2023-03-27T23:28:45.433Z,3.79
2023-03-27T23:31:15.746Z,3.64
2023-03-27T23:33:45.364Z,3.36
2023-03-27T23:36:14.668Z,3.14
2023-03-27T23:38:42.217Z,3.58
2023-03-27T23:41:11.255Z,3.63
2023-03-27T23:43:38.196Z,3.23
2023-03-27T23:46:08.711Z,3.16
2023-03-27T23:48:35.510Z,3.26
2023-03-27T23:51:02.811Z,3.51
2023-03-27T23:53:30.355Z,3.20
2023-03-27T23:55:59.314Z,3.62
2023-03-27T23:58:32.854Z,3.56
